Kasagimaru — JJ3905 — position and weather

sailwx.info

Track history (hours):
 
Tides and Currents Weather Stations Pressure Air Temp Water Temp Dewpoint Dewpoint Depression Visibility Wind Speed Wind Dir Waves Ship Positions

Kasagimaru

Last reported at 2018-Feb-23 23:00 UTC. Time now 2018-Feb-24 02:43 UTC.
Position N 34°23' E 135°03'.

Length 42 m; draft 3.5 m.

Type: Tug. MMSI: 431300268.

Date/timePositionNaut miles runAvg speedWind from/ knotsBaromVisibWave heightAir tempDewpointWater temp
2018-Feb-23 23:00N 34°23' E 135°03'612.6
2018-Feb-23 22:30N 34°17' E 134°59'612.3
2018-Feb-23 22:00N 34°11' E 134°59'3 6.4
2018-Feb-23 21:30N 34°11' E 135°03'510.5
2018-Feb-23 21:01N 34°13' E 135°09'0 0.1
2018-Feb-23 20:28N 34°13' E 135°09'0 0.0
2018-Feb-23 19:55N 34°13' E 135°09'0 0.0
2018-Feb-23 19:28N 34°13' E 135°09'0 0.0
2018-Feb-23 18:58N 34°13' E 135°09'0 0.0
2018-Feb-23 18:28N 34°13' E 135°09'0 0.0
2018-Feb-23 17:58N 34°13' E 135°09'0 0.0
2018-Feb-23 17:28N 34°13' E 135°09'0 0.0
2018-Feb-23 16:58N 34°13' E 135°09'0 0.0
2018-Feb-23 16:28N 34°13' E 135°09'0 0.0
2018-Feb-23 15:58N 34°13' E 135°09'0 0.0
2018-Feb-23 15:28N 34°13' E 135°09'0 0.0
2018-Feb-23 14:58N 34°13' E 135°09'0 0.0
2018-Feb-23 14:28N 34°13' E 135°09'0 0.0
2018-Feb-23 13:58N 34°13' E 135°09'0 0.0
2018-Feb-23 13:28N 34°13' E 135°09'0 0.0
2018-Feb-23 12:58N 34°13' E 135°09'0 0.0
2018-Feb-23 12:28N 34°13' E 135°09'0 0.0
2018-Feb-23 11:58N 34°13' E 135°09'0 0.0
2018-Feb-23 11:28N 34°13' E 135°09'0 0.0
2018-Feb-23 10:58N 34°13' E 135°09'0 0.0
2018-Feb-23 10:28N 34°13' E 135°09'0 0.0
2018-Feb-23 09:58N 34°13' E 135°09'0 0.0
2018-Feb-23 09:28N 34°13' E 135°09'0 0.0
2018-Feb-23 08:58N 34°13' E 135°09'0 0.0
2018-Feb-23 08:28N 34°13' E 135°09'0 0.0
2018-Feb-23 07:58N 34°13' E 135°09'0 0.0
2018-Feb-23 07:28N 34°13' E 135°09'0 0.0
2018-Feb-23 06:58N 34°13' E 135°09'2 3.4
2018-Feb-23 06:31N 34°13' E 135°07'510.3
2018-Feb-23 06:00N 34°17' E 135°04'611.7
2018-Feb-23 05:30N 34°22' E 135°09'612.3
2018-Feb-23 05:00N 34°25' E 135°15'612.2
2018-Feb-23 04:30N 34°30' E 135°20'3 7.1
2018-Feb-23 04:01N 34°31' E 135°24'3 5.9
2018-Feb-23 03:30N 34°33' E 135°25'1 2.1
2018-Feb-23 02:59N 34°33' E 135°27'0 0.0
2018-Feb-23 02:30N 34°33' E 135°27'0 0.0
2018-Feb-23 02:00N 34°33' E 135°27'0 0.9
2018-Feb-23 01:30N 34°33' E 135°26'2 3.4
2018-Feb-23 01:00N 34°34' E 135°24'0 0.1
2018-Feb-23 00:31N 34°34' E 135°24'0 0.1
2018-Feb-23 00:00N 34°34' E 135°24'1 1.5
2018-Feb-22 23:31N 34°33' E 135°24'3 5.3
2018-Feb-22 23:00N 34°33' E 135°20'1 1.1
2018-Feb-22 22:30N 34°33' E 135°21'5 9.2
2018-Feb-22 22:00N 34°33' E 135°27'0 0.3
2018-Feb-22 21:28N 34°33' E 135°27'0 0.0
2018-Feb-22 20:58N 34°33' E 135°27'0 0.0
2018-Feb-22 20:28N 34°33' E 135°27'0 0.0
2018-Feb-22 19:58N 34°33' E 135°27'0 0.0
2018-Feb-22 19:25N 34°33' E 135°27'0 0.0
2018-Feb-22 18:58N 34°33' E 135°27'0 0.0
2018-Feb-22 18:28N 34°33' E 135°27'0 0.0
2018-Feb-22 17:58N 34°33' E 135°27'0 0.0
2018-Feb-22 17:28N 34°33' E 135°27'0 0.0
2018-Feb-22 16:58N 34°33' E 135°27'0 0.0
2018-Feb-22 16:28N 34°33' E 135°27'0 0.0
2018-Feb-22 15:58N 34°33' E 135°27'0 0.0
2018-Feb-22 15:28N 34°33' E 135°27'0 0.0
2018-Feb-22 14:58N 34°33' E 135°27'0 0.0
2018-Feb-22 14:28N 34°33' E 135°27'0 0.0
2018-Feb-22 13:55N 34°33' E 135°27'0 0.0
2018-Feb-22 13:28N 34°33' E 135°27'0 0.0
2018-Feb-22 12:58N 34°33' E 135°27'0 0.0
2018-Feb-22 12:25N 34°33' E 135°27'0 0.0
2018-Feb-22 11:58N 34°33' E 135°27'0 0.0
2018-Feb-22 11:25N 34°33' E 135°27'0 0.0
2018-Feb-22 10:58N 34°33' E 135°27'0 0.0
2018-Feb-22 10:28N 34°33' E 135°27'0 0.0
2018-Feb-22 09:58N 34°33' E 135°27'0 0.0
2018-Feb-22 09:28N 34°33' E 135°27'1 1.5
2018-Feb-22 09:00N 34°33' E 135°26'1 2.6
2018-Feb-22 08:30N 34°34' E 135°24'0 0.2
2018-Feb-22 08:00N 34°34' E 135°24'0 0.1
2018-Feb-22 07:31N 34°34' E 135°24'0 0.0
2018-Feb-22 07:00N 34°34' E 135°24'1 2.4
2018-Feb-22 06:30N 34°33' E 135°23'2 4.6
2018-Feb-22 06:01N 34°33' E 135°20'0 0.3
2018-Feb-22 05:30N 34°33' E 135°20'2 4.7
2018-Feb-22 05:00N 34°33' E 135°23'2 3.4
2018-Feb-22 04:30N 34°34' E 135°25'0 0.0
2018-Feb-22 04:00N 34°34' E 135°25'0 0.3
2018-Feb-22 03:31N 34°34' E 135°25'1 2.1
2018-Feb-22 03:00N 34°33' E 135°24'3 6.4
2018-Feb-22 02:29N 34°34' E 135°20'0 0.1
2018-Feb-22 02:00N 34°34' E 135°20'1 1.6
2018-Feb-22 01:30N 34°33' E 135°20'1 1.3
2018-Feb-22 01:01N 34°33' E 135°21'2 4.7
2018-Feb-22 00:31N 34°33' E 135°24'2 3.1
2018-Feb-22 00:00N 34°33' E 135°26'0 0.2
2018-Feb-21 23:30N 34°33' E 135°26'1 1.2
2018-Feb-21 23:00N 34°33' E 135°27'0 0.0
2018-Feb-21 22:30N 34°33' E 135°27'0 0.0
2018-Feb-21 22:00N 34°33' E 135°27'0 0.0
2018-Feb-21 21:27N 34°33' E 135°27'0 0.0
2018-Feb-21 21:00N 34°33' E 135°27'0 0.0
2018-Feb-21 20:30N 34°33' E 135°27'0 0.0
2018-Feb-21 19:56N 34°33' E 135°27'0 0.0
2018-Feb-21 19:29N 34°33' E 135°27'0 0.0
2018-Feb-21 18:59N 34°33' E 135°27'0 0.0
2018-Feb-21 18:29N 34°33' E 135°27'0 0.0
2018-Feb-21 17:59N 34°33' E 135°27'0 0.0
2018-Feb-21 17:29N 34°33' E 135°27'0 0.0
2018-Feb-21 16:59N 34°33' E 135°27'0 0.0
2018-Feb-21 16:29N 34°33' E 135°27'0 0.0
2018-Feb-21 15:59N 34°33' E 135°27'0 0.0
2018-Feb-21 15:29N 34°33' E 135°27'0 0.0
2018-Feb-21 14:59N 34°33' E 135°27'0 0.0
2018-Feb-21 14:29N 34°33' E 135°27'0 0.0
2018-Feb-21 13:56N 34°33' E 135°27'0 0.0
2018-Feb-21 13:29N 34°33' E 135°27'0 0.0
2018-Feb-21 12:59N 34°33' E 135°27'0 0.0
2018-Feb-21 12:29N 34°33' E 135°27'0 0.0
2018-Feb-21 11:59N 34°33' E 135°27'0 0.0
2018-Feb-21 11:29N 34°33' E 135°27'0 0.0
2018-Feb-21 10:59N 34°33' E 135°27'0 0.0
2018-Feb-21 10:26N 34°33' E 135°27'0 0.0
2018-Feb-21 09:59N 34°33' E 135°27'0 0.0
2018-Feb-21 09:26N 34°33' E 135°27'0 0.0
2018-Feb-21 08:53N 34°33' E 135°27'0 0.0
2018-Feb-21 08:26N 34°33' E 135°27'0 0.0
2018-Feb-21 07:59N 34°33' E 135°27'0 0.1
2018-Feb-21 07:30N 34°33' E 135°27'4 8.2
2018-Feb-21 07:00N 34°36' E 135°24'2 4.9
2018-Feb-21 06:31N 34°39' E 135°24'2 3.3
2018-Feb-21 06:00N 34°38' E 135°23'2 3.9
2018-Feb-21 05:30N 34°36' E 135°23'0 0.4
2018-Feb-21 05:01N 34°36' E 135°23'3 5.9
2018-Feb-21 04:30N 34°33' E 135°26'1 1.2
2018-Feb-21 04:01N 34°33' E 135°27'0 0.0
2018-Feb-21 03:30N 34°33' E 135°27'0 0.0
2018-Feb-21 03:00N 34°33' E 135°27'0 0.0
2018-Feb-21 02:30N 34°33' E 135°27'1 1.2
2018-Feb-21 02:01N 34°33' E 135°26'0 0.1
2018-Feb-21 01:30N 34°33' E 135°26'0 0.3
2018-Feb-21 01:00N 34°33' E 135°26'2 4.0
2018-Feb-21 00:31N 34°33' E 135°23'3 6.3
2018-Feb-21 00:00N 34°34' E 135°20'1 1.5
2018-Feb-20 23:30N 34°34' E 135°21'510.1
2018-Feb-20 23:00N 34°33' E 135°27'0 0.1
2018-Feb-20 22:16N 34°33' E 135°27'0 0.0
2018-Feb-20 21:58N 34°33' E 135°27'0 0.0
2018-Feb-20 21:28N 34°33' E 135°27'0 0.0
2018-Feb-20 20:58N 34°33' E 135°27'0 0.0
2018-Feb-20 20:28N 34°33' E 135°27'0 0.0
2018-Feb-20 19:58N 34°33' E 135°27'0 0.0
2018-Feb-20 19:28N 34°33' E 135°27'0 0.0
2018-Feb-20 18:58N 34°33' E 135°27'0 0.0
2018-Feb-20 18:28N 34°33' E 135°27'0 0.0
2018-Feb-20 17:58N 34°33' E 135°27'0 0.0
2018-Feb-20 17:28N 34°33' E 135°27'0 0.0
2018-Feb-20 16:58N 34°33' E 135°27'0 0.0
2018-Feb-20 16:28N 34°33' E 135°27'0 0.0
2018-Feb-20 15:58N 34°33' E 135°27'0 0.0
2018-Feb-20 15:28N 34°33' E 135°27'0 0.0
2018-Feb-20 14:58N 34°33' E 135°27'0 0.0
2018-Feb-20 14:28N 34°33' E 135°27'0 0.0
2018-Feb-20 13:58N 34°33' E 135°27'0 0.0
2018-Feb-20 13:28N 34°33' E 135°27'0 0.0
2018-Feb-20 12:58N 34°33' E 135°27'0 0.0
2018-Feb-20 12:28N 34°33' E 135°27'0 0.0
2018-Feb-20 11:58N 34°33' E 135°27'0 0.0
2018-Feb-20 11:28N 34°33' E 135°27'0 0.0
2018-Feb-20 10:58N 34°33' E 135°27'0 0.0
2018-Feb-20 10:28N 34°33' E 135°27'0 0.0
2018-Feb-20 10:01N 34°33' E 135°27'0 0.0
2018-Feb-20 09:31N 34°33' E 135°27'0 0.0
2018-Feb-20 09:01N 34°33' E 135°27'0 0.0
2018-Feb-20 08:31N 34°33' E 135°27'0 0.0
2018-Feb-20 07:57N 34°33' E 135°27'1 2.6
2018-Feb-20 07:31N 34°33' E 135°25'612.1
2018-Feb-20 07:00N 34°34' E 135°18'713.1
2018-Feb-20 06:30N 34°34' E 135°10'713.3
2018-Feb-20 06:00N 34°36' E 135°02'713.1
2018-Feb-20 05:30N 34°37' E 134°54'1412.9
2018-Feb-20 04:26N 34°45' E 134°41'2 1.3
2018-Feb-20 02:53N 34°43' E 134°41'3 7.1
2018-Feb-20 02:30N 34°41' E 134°41'510.2
2018-Feb-20 02:00N 34°36' E 134°42'510.0
2018-Feb-20 01:30N 34°34' E 134°48'816.1
2018-Feb-20 01:00N 34°37' E 134°57'612.6
2018-Feb-20 00:30N 34°36' E 135°05'4 8.6
2018-Feb-20 00:00N 34°34' E 135°09'5 9.7
2018-Feb-19 23:31N 34°29' E 135°08'713.8
2018-Feb-19 23:00N 34°23' E 135°04'613.0
2018-Feb-19 22:30N 34°18' E 134°59'510.9
2018-Feb-19 22:00N 34°12' E 134°60'2 4.5
2018-Feb-19 21:30N 34°11' E 135°02'611.2
2018-Feb-19 21:00N 34°13' E 135°08'0 0.4
2018-Feb-19 20:30N 34°13' E 135°09'0 0.0
2018-Feb-19 19:59N 34°13' E 135°09'0 0.0
2018-Feb-19 19:29N 34°13' E 135°09'0 0.0
2018-Feb-19 18:59N 34°13' E 135°09'0 0.0
2018-Feb-19 18:29N 34°13' E 135°09'0 0.0
2018-Feb-19 17:59N 34°13' E 135°09'0 0.0
2018-Feb-19 17:29N 34°13' E 135°09'0 0.0
2018-Feb-19 16:59N 34°13' E 135°09'0 0.0
2018-Feb-19 16:29N 34°13' E 135°09'0 0.0
2018-Feb-19 15:59N 34°13' E 135°09'0 0.0
2018-Feb-19 15:29N 34°13' E 135°09'0 0.0
2018-Feb-19 14:59N 34°13' E 135°09'0 0.0
2018-Feb-19 14:29N 34°13' E 135°09'0 0.0
2018-Feb-19 13:59N 34°13' E 135°09'0 0.0
2018-Feb-19 13:29N 34°13' E 135°09'0 0.0
2018-Feb-19 12:59N 34°13' E 135°09'0 0.0
2018-Feb-19 12:29N 34°13' E 135°09'0 0.0
2018-Feb-19 11:59N 34°13' E 135°09'0 0.0
2018-Feb-19 11:29N 34°13' E 135°09'0 0.0
2018-Feb-19 10:59N 34°13' E 135°09'0 0.0
2018-Feb-19 10:29N 34°13' E 135°09'0 0.0
2018-Feb-19 09:59N 34°13' E 135°09'0 0.0
2018-Feb-19 09:29N 34°13' E 135°09'0 0.0
2018-Feb-19 08:59N 34°13' E 135°09'0 0.0
2018-Feb-19 08:29N 34°13' E 135°09'0 0.0
2018-Feb-19 07:59N 34°13' E 135°09'3 5.7
2018-Feb-19 07:31N 34°13' E 135°05'612.8
2018-Feb-19 07:00N 34°16' E 134°58'714.5
2018-Feb-19 06:30N 34°23' E 135°01'715.0
2018-Feb-19 06:00N 34°30' E 135°05'5 9.6
2018-Feb-19 05:30N 34°34' E 135°06'714.8
2018-Feb-19 05:00N 34°37' E 134°58'815.7
2018-Feb-19 04:30N 34°34' E 134°49'612.5
2018-Feb-19 04:00N 34°36' E 134°42'713.4
2018-Feb-19 03:30N 34°43' E 134°41'3 4.2
2018-Feb-19 02:48N 34°46' E 134°41'1 1.4
2018-Feb-19 02:23N 34°46' E 134°41'1 1.6
2018-Feb-19 01:58N 34°46' E 134°40'4 0.2
2018-Feb-18 02:49N 34°42' E 134°41'2 6.6
2018-Feb-18 02:30N 34°40' E 134°42'511.2
2018-Feb-18 02:00N 34°35' E 134°42'815.6
2018-Feb-18 01:30N 34°35' E 134°52'714.5
2018-Feb-18 01:01N 34°38' E 135°00'611.1
2018-Feb-18 00:30N 34°35' E 135°06'2 4.4
2018-Feb-18 00:01N 34°33' E 135°08'4 8.5
2018-Feb-17 23:30N 34°29' E 135°07'612.0
2018-Feb-17 23:00N 34°24' E 135°04'612.1
2018-Feb-17 22:31N 34°19' E 135°00'611.3
2018-Feb-17 22:00N 34°13' E 135°00'3 5.3
2018-Feb-17 21:30N 34°11' E 135°03'611.2
2018-Feb-17 21:00N 34°13' E 135°09'0 0.2
2018-Feb-17 20:30N 34°13' E 135°09'0 0.0
2018-Feb-17 20:00N 34°13' E 135°09'0 0.0
2018-Feb-17 19:30N 34°13' E 135°09'0 0.0
2018-Feb-17 19:00N 34°13' E 135°09'0 0.0
2018-Feb-17 18:30N 34°13' E 135°09'0 0.0
2018-Feb-17 18:00N 34°13' E 135°09'0 0.0
2018-Feb-17 17:30N 34°13' E 135°09'0 0.0
2018-Feb-17 17:00N 34°13' E 135°09'0 0.0
2018-Feb-17 16:30N 34°13' E 135°09'0 0.0
2018-Feb-17 16:00N 34°13' E 135°09'0 0.0
2018-Feb-17 15:30N 34°13' E 135°09'0 0.0
2018-Feb-17 15:00N 34°13' E 135°09'0 0.0
2018-Feb-17 14:30N 34°13' E 135°09'0 0.0
2018-Feb-17 14:00N 34°13' E 135°09'0 0.0
2018-Feb-17 13:30N 34°13' E 135°09'0 0.0
2018-Feb-17 13:00N 34°13' E 135°09'0 0.0
2018-Feb-17 12:30N 34°13' E 135°09'0 0.0
2018-Feb-17 12:00N 34°13' E 135°09'0 0.0
2018-Feb-17 11:30N 34°13' E 135°09'0 0.0
2018-Feb-17 11:00N 34°13' E 135°09'0 0.0
2018-Feb-17 10:30N 34°13' E 135°09'0 0.0
2018-Feb-17 10:00N 34°13' E 135°09'0 0.0
2018-Feb-17 09:30N 34°13' E 135°09'0 0.0
2018-Feb-17 09:00N 34°13' E 135°09'0 0.0
2018-Feb-17 08:30N 34°13' E 135°09'0 0.0
2018-Feb-17 08:00N 34°13' E 135°09'0 0.0
2018-Feb-17 07:30N 34°13' E 135°09'0 0.0
2018-Feb-17 07:00N 34°13' E 135°09'0 0.0
2018-Feb-17 06:30N 34°13' E 135°09'0 0.0
2018-Feb-17 06:00N 34°13' E 135°09'0 0.0
2018-Feb-17 05:30N 34°13' E 135°09'510.3
2018-Feb-17 05:00N 34°15' E 135°03'713.1
2018-Feb-17 04:30N 34°21' E 135°07'613.0
2018-Feb-17 04:00N 34°24' E 135°14'612.1
2018-Feb-17 03:31N 34°29' E 135°19'612.4
2018-Feb-17 03:00N 34°33' E 135°24'2 3.9
2018-Feb-17 02:29N 34°33' E 135°27'0 0.0
2018-Feb-17 02:00N 34°33' E 135°27'2 4.5
2018-Feb-17 01:30N 34°34' E 135°24'1 1.0
2018-Feb-17 01:01N 34°34' E 135°24'0 0.5
2018-Feb-17 00:30N 34°34' E 135°24'3 5.1
2018-Feb-17 00:00N 34°31' E 135°23'1 1.4
2018-Feb-16 23:30N 34°31' E 135°24'0 0.0
2018-Feb-16 23:00N 34°31' E 135°24'1 1.2
2018-Feb-16 22:30N 34°32' E 135°24'1 2.3
2018-Feb-16 22:00N 34°33' E 135°23'0 0.4
2018-Feb-16 21:30N 34°33' E 135°23'2 4.9
2018-Feb-16 21:00N 34°31' E 135°24'0 0.3
2018-Feb-16 20:30N 34°31' E 135°24'0 0.0
2018-Feb-16 20:00N 34°31' E 135°24'0 0.0
2018-Feb-16 19:27N 34°31' E 135°24'0 0.0
2018-Feb-16 18:57N 34°31' E 135°24'0 0.0
2018-Feb-16 18:30N 34°31' E 135°24'0 0.0
2018-Feb-16 18:00N 34°31' E 135°24'0 0.0
2018-Feb-16 17:30N 34°31' E 135°24'0 0.0
2018-Feb-16 16:57N 34°31' E 135°24'0 0.0
2018-Feb-16 16:21N 34°31' E 135°24'0 0.0
2018-Feb-16 16:00N 34°31' E 135°24'0 0.0
2018-Feb-16 15:30N 34°31' E 135°24'0 0.0
2018-Feb-16 15:00N 34°31' E 135°24'0 0.0
2018-Feb-16 14:30N 34°31' E 135°24'0 0.0
2018-Feb-16 13:57N 34°31' E 135°24'0 0.0
2018-Feb-16 13:29N 34°31' E 135°24'0 0.0
2018-Feb-16 12:59N 34°31' E 135°24'0 0.0
2018-Feb-16 12:29N 34°31' E 135°24'0 0.0
2018-Feb-16 11:59N 34°31' E 135°24'0 0.0
2018-Feb-16 11:29N 34°31' E 135°24'0 0.0
2018-Feb-16 10:59N 34°31' E 135°24'0 0.0
2018-Feb-16 10:29N 34°31' E 135°24'0 0.0
2018-Feb-16 09:56N 34°31' E 135°24'0 0.0
2018-Feb-16 09:29N 34°31' E 135°24'3 5.5
2018-Feb-16 09:00N 34°31' E 135°21'713.0
2018-Feb-16 08:30N 34°28' E 135°14'612.9
2018-Feb-16 08:00N 34°24' E 135°08'713.9
2018-Feb-16 07:30N 34°19' E 135°02'3 6.0
2018-Feb-16 07:01N 34°18' E 134°59'713.8
2018-Feb-16 06:30N 34°24' E 135°01'714.5
2018-Feb-16 06:00N 34°31' E 135°05'3 6.7
2018-Feb-16 05:30N 34°34' E 135°05'713.1
2018-Feb-16 05:00N 34°37' E 134°58'5 9.5
2018-Feb-16 04:30N 34°35' E 134°53'611.3
2018-Feb-16 03:58N 34°33' E 134°46'511.6
2018-Feb-16 03:31N 34°37' E 134°42'814.4
2018-Feb-16 02:57N 34°45' E 134°41'1 1.4
2018-Feb-16 02:18N 34°46' E 134°41'2 4.1
2018-Feb-16 01:48N 34°46' E 134°39'5 0.2
2018-Feb-15 02:53N 34°41' E 134°41'3 6.4
2018-Feb-15 02:27N 34°39' E 134°42'511.6
2018-Feb-15 02:00N 34°34' E 134°45'715.0
2018-Feb-15 01:31N 34°36' E 134°54'713.7
2018-Feb-15 01:00N 34°37' E 135°02'511.0
2018-Feb-15 00:31N 34°35' E 135°08'4 8.4
2018-Feb-15 00:00N 34°31' E 135°08'612.8
2018-Feb-14 23:30N 34°25' E 135°05'612.0
2018-Feb-14 23:00N 34°20' E 135°01'713.2
2018-Feb-14 22:30N 34°13' E 134°60'2 4.9
2018-Feb-14 22:00N 34°11' E 134°60'2 4.9
2018-Feb-14 21:30N 34°12' E 135°03'510.8
2018-Feb-14 21:00N 34°13' E 135°09'0 0.3
2018-Feb-14 20:30N 34°13' E 135°09'0 0.0
2018-Feb-14 19:58N 34°13' E 135°09'0 0.0
2018-Feb-14 19:28N 34°13' E 135°09'0 0.0
2018-Feb-14 18:58N 34°13' E 135°09'0 0.0
2018-Feb-14 18:28N 34°13' E 135°09'0 0.0
2018-Feb-14 17:58N 34°13' E 135°09'0 0.0
2018-Feb-14 17:28N 34°13' E 135°09'0 0.0
2018-Feb-14 16:58N 34°13' E 135°09'0 0.0
2018-Feb-14 16:28N 34°13' E 135°09'0 0.0
2018-Feb-14 15:58N 34°13' E 135°09'0 0.0
2018-Feb-14 15:28N 34°13' E 135°09'0 0.0
2018-Feb-14 15:01N 34°13' E 135°09'0 0.0
2018-Feb-14 14:31N 34°13' E 135°09'0 0.0
2018-Feb-14 14:01N 34°13' E 135°09'0 0.0
2018-Feb-14 13:30N 34°13' E 135°09'0 0.0
2018-Feb-14 13:00N 34°13' E 135°09'0 0.0
2018-Feb-14 12:31N 34°13' E 135°09'0 0.0
2018-Feb-14 12:00N 34°13' E 135°09'0 0.0
2018-Feb-14 11:31N 34°13' E 135°09'0 0.0
2018-Feb-14 11:00N 34°13' E 135°09'0 0.0
2018-Feb-14 10:30N 34°13' E 135°09'0 0.0
2018-Feb-14 10:00N 34°13' E 135°09'0 0.0
2018-Feb-14 09:30N 34°13' E 135°09'0 0.0
2018-Feb-14 09:00N 34°13' E 135°09'0 0.0
2018-Feb-14 08:30N 34°13' E 135°09'0 0.0
2018-Feb-14 08:00N 34°13' E 135°09'0 0.0
2018-Feb-14 07:30N 34°13' E 135°09'0 0.0
2018-Feb-14 07:01N 34°13' E 135°09'5 9.5
2018-Feb-14 06:31N 34°14' E 135°03'510.7
2018-Feb-14 06:01N 34°18' E 134°59'713.9
2018-Feb-14 05:31N 34°24' E 135°02'714.3
2018-Feb-14 05:00N 34°30' E 135°06'4 8.9
2018-Feb-14 04:31N 34°34' E 135°09'5 9.6
2018-Feb-14 04:01N 34°36' E 135°03'815.6
2018-Feb-14 03:30N 34°35' E 134°54'814.8
2018-Feb-14 03:00N 34°34' E 134°44'714.8
2018-Feb-14 02:30N 34°41' E 134°42'  
Track history (hours):
 
Tides and Currents Weather Stations Pressure Air Temp Water Temp Dewpoint Dewpoint Depression Visibility Wind Speed Wind Dir Waves Ship Positions

Kasagimaru

Last reported at 2018-Feb-23 23:00 UTC. Time now 2018-Feb-24 02:43 UTC.
Position N 34°23' E 135°03'.

Length 42 m; draft 3.5 m.

Type: Tug. MMSI: 431300268.

Date/timePositionNaut miles runAvg speedWind from/ knotsBaromVisibWave heightAir tempDewpointWater temp
2018-Feb-23 23:00N 34°23' E 135°03'612.6
2018-Feb-23 22:30N 34°17' E 134°59'612.3
2018-Feb-23 22:00N 34°11' E 134°59'3 6.4
2018-Feb-23 21:30N 34°11' E 135°03'510.5
2018-Feb-23 21:01N 34°13' E 135°09'0 0.1
2018-Feb-23 20:28N 34°13' E 135°09'0 0.0
2018-Feb-23 19:55N 34°13' E 135°09'0 0.0
2018-Feb-23 19:28N 34°13' E 135°09'0 0.0
2018-Feb-23 18:58N 34°13' E 135°09'0 0.0
2018-Feb-23 18:28N 34°13' E 135°09'0 0.0
2018-Feb-23 17:58N 34°13' E 135°09'0 0.0
2018-Feb-23 17:28N 34°13' E 135°09'0 0.0
2018-Feb-23 16:58N 34°13' E 135°09'0 0.0
2018-Feb-23 16:28N 34°13' E 135°09'0 0.0
2018-Feb-23 15:58N 34°13' E 135°09'0 0.0
2018-Feb-23 15:28N 34°13' E 135°09'0 0.0
2018-Feb-23 14:58N 34°13' E 135°09'0 0.0
2018-Feb-23 14:28N 34°13' E 135°09'0 0.0
2018-Feb-23 13:58N 34°13' E 135°09'0 0.0
2018-Feb-23 13:28N 34°13' E 135°09'0 0.0
2018-Feb-23 12:58N 34°13' E 135°09'0 0.0
2018-Feb-23 12:28N 34°13' E 135°09'0 0.0
2018-Feb-23 11:58N 34°13' E 135°09'0 0.0
2018-Feb-23 11:28N 34°13' E 135°09'0 0.0
2018-Feb-23 10:58N 34°13' E 135°09'0 0.0
2018-Feb-23 10:28N 34°13' E 135°09'0 0.0
2018-Feb-23 09:58N 34°13' E 135°09'0 0.0
2018-Feb-23 09:28N 34°13' E 135°09'0 0.0
2018-Feb-23 08:58N 34°13' E 135°09'0 0.0
2018-Feb-23 08:28N 34°13' E 135°09'0 0.0
2018-Feb-23 07:58N 34°13' E 135°09'0 0.0
2018-Feb-23 07:28N 34°13' E 135°09'0 0.0
2018-Feb-23 06:58N 34°13' E 135°09'2 3.4
2018-Feb-23 06:31N 34°13' E 135°07'510.3
2018-Feb-23 06:00N 34°17' E 135°04'611.7
2018-Feb-23 05:30N 34°22' E 135°09'612.3
2018-Feb-23 05:00N 34°25' E 135°15'612.2
2018-Feb-23 04:30N 34°30' E 135°20'3 7.1
2018-Feb-23 04:01N 34°31' E 135°24'3 5.9
2018-Feb-23 03:30N 34°33' E 135°25'1 2.1
2018-Feb-23 02:59N 34°33' E 135°27'0 0.0
2018-Feb-23 02:30N 34°33' E 135°27'0 0.0
2018-Feb-23 02:00N 34°33' E 135°27'0 0.9
2018-Feb-23 01:30N 34°33' E 135°26'2 3.4
2018-Feb-23 01:00N 34°34' E 135°24'0 0.1
2018-Feb-23 00:31N 34°34' E 135°24'0 0.1
2018-Feb-23 00:00N 34°34' E 135°24'1 1.5
2018-Feb-22 23:31N 34°33' E 135°24'3 5.3
2018-Feb-22 23:00N 34°33' E 135°20'1 1.1
2018-Feb-22 22:30N 34°33' E 135°21'5 9.2
2018-Feb-22 22:00N 34°33' E 135°27'0 0.3
2018-Feb-22 21:28N 34°33' E 135°27'0 0.0
2018-Feb-22 20:58N 34°33' E 135°27'0 0.0
2018-Feb-22 20:28N 34°33' E 135°27'0 0.0
2018-Feb-22 19:58N 34°33' E 135°27'0 0.0
2018-Feb-22 19:25N 34°33' E 135°27'0 0.0
2018-Feb-22 18:58N 34°33' E 135°27'0 0.0
2018-Feb-22 18:28N 34°33' E 135°27'0 0.0
2018-Feb-22 17:58N 34°33' E 135°27'0 0.0
2018-Feb-22 17:28N 34°33' E 135°27'0 0.0
2018-Feb-22 16:58N 34°33' E 135°27'0 0.0
2018-Feb-22 16:28N 34°33' E 135°27'0 0.0
2018-Feb-22 15:58N 34°33' E 135°27'0 0.0
2018-Feb-22 15:28N 34°33' E 135°27'0 0.0
2018-Feb-22 14:58N 34°33' E 135°27'0 0.0
2018-Feb-22 14:28N 34°33' E 135°27'0 0.0
2018-Feb-22 13:55N 34°33' E 135°27'0 0.0
2018-Feb-22 13:28N 34°33' E 135°27'0 0.0
2018-Feb-22 12:58N 34°33' E 135°27'0 0.0
2018-Feb-22 12:25N 34°33' E 135°27'0 0.0
2018-Feb-22 11:58N 34°33' E 135°27'0 0.0
2018-Feb-22 11:25N 34°33' E 135°27'0 0.0
2018-Feb-22 10:58N 34°33' E 135°27'0 0.0
2018-Feb-22 10:28N 34°33' E 135°27'0 0.0
2018-Feb-22 09:58N 34°33' E 135°27'0 0.0
2018-Feb-22 09:28N 34°33' E 135°27'1 1.5
2018-Feb-22 09:00N 34°33' E 135°26'1 2.6
2018-Feb-22 08:30N 34°34' E 135°24'0 0.2
2018-Feb-22 08:00N 34°34' E 135°24'0 0.1
2018-Feb-22 07:31N 34°34' E 135°24'0 0.0
2018-Feb-22 07:00N 34°34' E 135°24'1 2.4
2018-Feb-22 06:30N 34°33' E 135°23'2 4.6
2018-Feb-22 06:01N 34°33' E 135°20'0 0.3
2018-Feb-22 05:30N 34°33' E 135°20'2 4.7
2018-Feb-22 05:00N 34°33' E 135°23'2 3.4
2018-Feb-22 04:30N 34°34' E 135°25'0 0.0
2018-Feb-22 04:00N 34°34' E 135°25'0 0.3
2018-Feb-22 03:31N 34°34' E 135°25'1 2.1
2018-Feb-22 03:00N 34°33' E 135°24'3 6.4
2018-Feb-22 02:29N 34°34' E 135°20'0 0.1
2018-Feb-22 02:00N 34°34' E 135°20'1 1.6
2018-Feb-22 01:30N 34°33' E 135°20'1 1.3
2018-Feb-22 01:01N 34°33' E 135°21'2 4.7
2018-Feb-22 00:31N 34°33' E 135°24'2 3.1
2018-Feb-22 00:00N 34°33' E 135°26'0 0.2
2018-Feb-21 23:30N 34°33' E 135°26'1 1.2
2018-Feb-21 23:00N 34°33' E 135°27'0 0.0
2018-Feb-21 22:30N 34°33' E 135°27'0 0.0
2018-Feb-21 22:00N 34°33' E 135°27'0 0.0
2018-Feb-21 21:27N 34°33' E 135°27'0 0.0
2018-Feb-21 21:00N 34°33' E 135°27'0 0.0
2018-Feb-21 20:30N 34°33' E 135°27'0 0.0
2018-Feb-21 19:56N 34°33' E 135°27'0 0.0
2018-Feb-21 19:29N 34°33' E 135°27'0 0.0
2018-Feb-21 18:59N 34°33' E 135°27'0 0.0
2018-Feb-21 18:29N 34°33' E 135°27'0 0.0
2018-Feb-21 17:59N 34°33' E 135°27'0 0.0
2018-Feb-21 17:29N 34°33' E 135°27'0 0.0
2018-Feb-21 16:59N 34°33' E 135°27'0 0.0
2018-Feb-21 16:29N 34°33' E 135°27'0 0.0
2018-Feb-21 15:59N 34°33' E 135°27'0 0.0
2018-Feb-21 15:29N 34°33' E 135°27'0 0.0
2018-Feb-21 14:59N 34°33' E 135°27'0 0.0
2018-Feb-21 14:29N 34°33' E 135°27'0 0.0
2018-Feb-21 13:56N 34°33' E 135°27'0 0.0
2018-Feb-21 13:29N 34°33' E 135°27'0 0.0
2018-Feb-21 12:59N 34°33' E 135°27'0 0.0
2018-Feb-21 12:29N 34°33' E 135°27'0 0.0
2018-Feb-21 11:59N 34°33' E 135°27'0 0.0
2018-Feb-21 11:29N 34°33' E 135°27'0 0.0
2018-Feb-21 10:59N 34°33' E 135°27'0 0.0
2018-Feb-21 10:26N 34°33' E 135°27'0 0.0
2018-Feb-21 09:59N 34°33' E 135°27'0 0.0
2018-Feb-21 09:26N 34°33' E 135°27'0 0.0
2018-Feb-21 08:53N 34°33' E 135°27'0 0.0
2018-Feb-21 08:26N 34°33' E 135°27'0 0.0
2018-Feb-21 07:59N 34°33' E 135°27'0 0.1
2018-Feb-21 07:30N 34°33' E 135°27'4 8.2
2018-Feb-21 07:00N 34°36' E 135°24'2 4.9
2018-Feb-21 06:31N 34°39' E 135°24'2 3.3
2018-Feb-21 06:00N 34°38' E 135°23'2 3.9
2018-Feb-21 05:30N 34°36' E 135°23'0 0.4
2018-Feb-21 05:01N 34°36' E 135°23'3 5.9
2018-Feb-21 04:30N 34°33' E 135°26'1 1.2
2018-Feb-21 04:01N 34°33' E 135°27'0 0.0
2018-Feb-21 03:30N 34°33' E 135°27'0 0.0
2018-Feb-21 03:00N 34°33' E 135°27'0 0.0
2018-Feb-21 02:30N 34°33' E 135°27'1 1.2
2018-Feb-21 02:01N 34°33' E 135°26'0 0.1
2018-Feb-21 01:30N 34°33' E 135°26'0 0.3
2018-Feb-21 01:00N 34°33' E 135°26'2 4.0
2018-Feb-21 00:31N 34°33' E 135°23'3 6.3
2018-Feb-21 00:00N 34°34' E 135°20'1 1.5
2018-Feb-20 23:30N 34°34' E 135°21'510.1
2018-Feb-20 23:00N 34°33' E 135°27'0 0.1
2018-Feb-20 22:16N 34°33' E 135°27'0 0.0
2018-Feb-20 21:58N 34°33' E 135°27'0 0.0
2018-Feb-20 21:28N 34°33' E 135°27'0 0.0
2018-Feb-20 20:58N 34°33' E 135°27'0 0.0
2018-Feb-20 20:28N 34°33' E 135°27'0 0.0
2018-Feb-20 19:58N 34°33' E 135°27'0 0.0
2018-Feb-20 19:28N 34°33' E 135°27'0 0.0
2018-Feb-20 18:58N 34°33' E 135°27'0 0.0
2018-Feb-20 18:28N 34°33' E 135°27'0 0.0
2018-Feb-20 17:58N 34°33' E 135°27'0 0.0
2018-Feb-20 17:28N 34°33' E 135°27'0 0.0
2018-Feb-20 16:58N 34°33' E 135°27'0 0.0
2018-Feb-20 16:28N 34°33' E 135°27'0 0.0
2018-Feb-20 15:58N 34°33' E 135°27'0 0.0
2018-Feb-20 15:28N 34°33' E 135°27'0 0.0
2018-Feb-20 14:58N 34°33' E 135°27'0 0.0
2018-Feb-20 14:28N 34°33' E 135°27'0 0.0
2018-Feb-20 13:58N 34°33' E 135°27'0 0.0
2018-Feb-20 13:28N 34°33' E 135°27'0 0.0
2018-Feb-20 12:58N 34°33' E 135°27'0 0.0
2018-Feb-20 12:28N 34°33' E 135°27'0 0.0
2018-Feb-20 11:58N 34°33' E 135°27'0 0.0
2018-Feb-20 11:28N 34°33' E 135°27'0 0.0
2018-Feb-20 10:58N 34°33' E 135°27'0 0.0
2018-Feb-20 10:28N 34°33' E 135°27'0 0.0
2018-Feb-20 10:01N 34°33' E 135°27'0 0.0
2018-Feb-20 09:31N 34°33' E 135°27'0 0.0
2018-Feb-20 09:01N 34°33' E 135°27'0 0.0
2018-Feb-20 08:31N 34°33' E 135°27'0 0.0
2018-Feb-20 07:57N 34°33' E 135°27'1 2.6
2018-Feb-20 07:31N 34°33' E 135°25'612.1
2018-Feb-20 07:00N 34°34' E 135°18'713.1
2018-Feb-20 06:30N 34°34' E 135°10'713.3
2018-Feb-20 06:00N 34°36' E 135°02'713.1
2018-Feb-20 05:30N 34°37' E 134°54'1412.9
2018-Feb-20 04:26N 34°45' E 134°41'2 1.3
2018-Feb-20 02:53N 34°43' E 134°41'3 7.1
2018-Feb-20 02:30N 34°41' E 134°41'510.2
2018-Feb-20 02:00N 34°36' E 134°42'510.0
2018-Feb-20 01:30N 34°34' E 134°48'816.1
2018-Feb-20 01:00N 34°37' E 134°57'612.6
2018-Feb-20 00:30N 34°36' E 135°05'4 8.6
2018-Feb-20 00:00N 34°34' E 135°09'5 9.7
2018-Feb-19 23:31N 34°29' E 135°08'713.8
2018-Feb-19 23:00N 34°23' E 135°04'613.0
2018-Feb-19 22:30N 34°18' E 134°59'510.9
2018-Feb-19 22:00N 34°12' E 134°60'2 4.5
2018-Feb-19 21:30N 34°11' E 135°02'611.2
2018-Feb-19 21:00N 34°13' E 135°08'0 0.4
2018-Feb-19 20:30N 34°13' E 135°09'0 0.0
2018-Feb-19 19:59N 34°13' E 135°09'0 0.0
2018-Feb-19 19:29N 34°13' E 135°09'0 0.0
2018-Feb-19 18:59N 34°13' E 135°09'0 0.0
2018-Feb-19 18:29N 34°13' E 135°09'0 0.0
2018-Feb-19 17:59N 34°13' E 135°09'0 0.0
2018-Feb-19 17:29N 34°13' E 135°09'0 0.0
2018-Feb-19 16:59N 34°13' E 135°09'0 0.0
2018-Feb-19 16:29N 34°13' E 135°09'0 0.0
2018-Feb-19 15:59N 34°13' E 135°09'0 0.0
2018-Feb-19 15:29N 34°13' E 135°09'0 0.0
2018-Feb-19 14:59N 34°13' E 135°09'0 0.0
2018-Feb-19 14:29N 34°13' E 135°09'0 0.0
2018-Feb-19 13:59N 34°13' E 135°09'0 0.0
2018-Feb-19 13:29N 34°13' E 135°09'0 0.0
2018-Feb-19 12:59N 34°13' E 135°09'0 0.0
2018-Feb-19 12:29N 34°13' E 135°09'0 0.0
2018-Feb-19 11:59N 34°13' E 135°09'0 0.0
2018-Feb-19 11:29N 34°13' E 135°09'0 0.0
2018-Feb-19 10:59N 34°13' E 135°09'0 0.0
2018-Feb-19 10:29N 34°13' E 135°09'0 0.0
2018-Feb-19 09:59N 34°13' E 135°09'0 0.0
2018-Feb-19 09:29N 34°13' E 135°09'0 0.0
2018-Feb-19 08:59N 34°13' E 135°09'0 0.0
2018-Feb-19 08:29N 34°13' E 135°09'0 0.0
2018-Feb-19 07:59N 34°13' E 135°09'3 5.7
2018-Feb-19 07:31N 34°13' E 135°05'612.8
2018-Feb-19 07:00N 34°16' E 134°58'714.5
2018-Feb-19 06:30N 34°23' E 135°01'715.0
2018-Feb-19 06:00N 34°30' E 135°05'5 9.6
2018-Feb-19 05:30N 34°34' E 135°06'714.8
2018-Feb-19 05:00N 34°37' E 134°58'815.7
2018-Feb-19 04:30N 34°34' E 134°49'612.5
2018-Feb-19 04:00N 34°36' E 134°42'713.4
2018-Feb-19 03:30N 34°43' E 134°41'3 4.2
2018-Feb-19 02:48N 34°46' E 134°41'1 1.4
2018-Feb-19 02:23N 34°46' E 134°41'1 1.6
2018-Feb-19 01:58N 34°46' E 134°40'4 0.2
2018-Feb-18 02:49N 34°42' E 134°41'2 6.6
2018-Feb-18 02:30N 34°40' E 134°42'511.2
2018-Feb-18 02:00N 34°35' E 134°42'815.6
2018-Feb-18 01:30N 34°35' E 134°52'714.5
2018-Feb-18 01:01N 34°38' E 135°00'611.1
2018-Feb-18 00:30N 34°35' E 135°06'2 4.4
2018-Feb-18 00:01N 34°33' E 135°08'4 8.5
2018-Feb-17 23:30N 34°29' E 135°07'612.0
2018-Feb-17 23:00N 34°24' E 135°04'612.1
2018-Feb-17 22:31N 34°19' E 135°00'611.3
2018-Feb-17 22:00N 34°13' E 135°00'3 5.3
2018-Feb-17 21:30N 34°11' E 135°03'611.2
2018-Feb-17 21:00N 34°13' E 135°09'0 0.2
2018-Feb-17 20:30N 34°13' E 135°09'0 0.0
2018-Feb-17 20:00N 34°13' E 135°09'0 0.0
2018-Feb-17 19:30N 34°13' E 135°09'0 0.0
2018-Feb-17 19:00N 34°13' E 135°09'0 0.0
2018-Feb-17 18:30N 34°13' E 135°09'0 0.0
2018-Feb-17 18:00N 34°13' E 135°09'0 0.0
2018-Feb-17 17:30N 34°13' E 135°09'0 0.0
2018-Feb-17 17:00N 34°13' E 135°09'0 0.0
2018-Feb-17 16:30N 34°13' E 135°09'0 0.0
2018-Feb-17 16:00N 34°13' E 135°09'0 0.0
2018-Feb-17 15:30N 34°13' E 135°09'0 0.0
2018-Feb-17 15:00N 34°13' E 135°09'0 0.0
2018-Feb-17 14:30N 34°13' E 135°09'0 0.0
2018-Feb-17 14:00N 34°13' E 135°09'0 0.0
2018-Feb-17 13:30N 34°13' E 135°09'0 0.0
2018-Feb-17 13:00N 34°13' E 135°09'0 0.0
2018-Feb-17 12:30N 34°13' E 135°09'0 0.0
2018-Feb-17 12:00N 34°13' E 135°09'0 0.0
2018-Feb-17 11:30N 34°13' E 135°09'0 0.0
2018-Feb-17 11:00N 34°13' E 135°09'0 0.0
2018-Feb-17 10:30N 34°13' E 135°09'0 0.0
2018-Feb-17 10:00N 34°13' E 135°09'0 0.0
2018-Feb-17 09:30N 34°13' E 135°09'0 0.0
2018-Feb-17 09:00N 34°13' E 135°09'0 0.0
2018-Feb-17 08:30N 34°13' E 135°09'0 0.0
2018-Feb-17 08:00N 34°13' E 135°09'0 0.0
2018-Feb-17 07:30N 34°13' E 135°09'0 0.0
2018-Feb-17 07:00N 34°13' E 135°09'0 0.0
2018-Feb-17 06:30N 34°13' E 135°09'0 0.0
2018-Feb-17 06:00N 34°13' E 135°09'0 0.0
2018-Feb-17 05:30N 34°13' E 135°09'510.3
2018-Feb-17 05:00N 34°15' E 135°03'713.1
2018-Feb-17 04:30N 34°21' E 135°07'613.0
2018-Feb-17 04:00N 34°24' E 135°14'612.1
2018-Feb-17 03:31N 34°29' E 135°19'612.4
2018-Feb-17 03:00N 34°33' E 135°24'2 3.9
2018-Feb-17 02:29N 34°33' E 135°27'0 0.0
2018-Feb-17 02:00N 34°33' E 135°27'2 4.5
2018-Feb-17 01:30N 34°34' E 135°24'1 1.0
2018-Feb-17 01:01N 34°34' E 135°24'0 0.5
2018-Feb-17 00:30N 34°34' E 135°24'3 5.1
2018-Feb-17 00:00N 34°31' E 135°23'1 1.4
2018-Feb-16 23:30N 34°31' E 135°24'0 0.0
2018-Feb-16 23:00N 34°31' E 135°24'1 1.2
2018-Feb-16 22:30N 34°32' E 135°24'1 2.3
2018-Feb-16 22:00N 34°33' E 135°23'0 0.4
2018-Feb-16 21:30N 34°33' E 135°23'2 4.9
2018-Feb-16 21:00N 34°31' E 135°24'0 0.3
2018-Feb-16 20:30N 34°31' E 135°24'0 0.0
2018-Feb-16 20:00N 34°31' E 135°24'0 0.0
2018-Feb-16 19:27N 34°31' E 135°24'0 0.0
2018-Feb-16 18:57N 34°31' E 135°24'0 0.0
2018-Feb-16 18:30N 34°31' E 135°24'0 0.0
2018-Feb-16 18:00N 34°31' E 135°24'0 0.0
2018-Feb-16 17:30N 34°31' E 135°24'0 0.0
2018-Feb-16 16:57N 34°31' E 135°24'0 0.0
2018-Feb-16 16:21N 34°31' E 135°24'0 0.0
2018-Feb-16 16:00N 34°31' E 135°24'0 0.0
2018-Feb-16 15:30N 34°31' E 135°24'0 0.0
2018-Feb-16 15:00N 34°31' E 135°24'0 0.0
2018-Feb-16 14:30N 34°31' E 135°24'0 0.0
2018-Feb-16 13:57N 34°31' E 135°24'0 0.0
2018-Feb-16 13:29N 34°31' E 135°24'0 0.0
2018-Feb-16 12:59N 34°31' E 135°24'0 0.0
2018-Feb-16 12:29N 34°31' E 135°24'0 0.0
2018-Feb-16 11:59N 34°31' E 135°24'0 0.0
2018-Feb-16 11:29N 34°31' E 135°24'0 0.0
2018-Feb-16 10:59N 34°31' E 135°24'0 0.0
2018-Feb-16 10:29N 34°31' E 135°24'0 0.0
2018-Feb-16 09:56N 34°31' E 135°24'0 0.0
2018-Feb-16 09:29N 34°31' E 135°24'3 5.5
2018-Feb-16 09:00N 34°31' E 135°21'713.0
2018-Feb-16 08:30N 34°28' E 135°14'612.9
2018-Feb-16 08:00N 34°24' E 135°08'713.9
2018-Feb-16 07:30N 34°19' E 135°02'3 6.0
2018-Feb-16 07:01N 34°18' E 134°59'713.8
2018-Feb-16 06:30N 34°24' E 135°01'714.5
2018-Feb-16 06:00N 34°31' E 135°05'3 6.7
2018-Feb-16 05:30N 34°34' E 135°05'713.1
2018-Feb-16 05:00N 34°37' E 134°58'5 9.5
2018-Feb-16 04:30N 34°35' E 134°53'611.3
2018-Feb-16 03:58N 34°33' E 134°46'511.6
2018-Feb-16 03:31N 34°37' E 134°42'814.4
2018-Feb-16 02:57N 34°45' E 134°41'1 1.4
2018-Feb-16 02:18N 34°46' E 134°41'2 4.1
2018-Feb-16 01:48N 34°46' E 134°39'5 0.2
2018-Feb-15 02:53N 34°41' E 134°41'3 6.4
2018-Feb-15 02:27N 34°39' E 134°42'511.6
2018-Feb-15 02:00N 34°34' E 134°45'715.0
2018-Feb-15 01:31N 34°36' E 134°54'713.7
2018-Feb-15 01:00N 34°37' E 135°02'511.0
2018-Feb-15 00:31N 34°35' E 135°08'4 8.4
2018-Feb-15 00:00N 34°31' E 135°08'612.8
2018-Feb-14 23:30N 34°25' E 135°05'612.0
2018-Feb-14 23:00N 34°20' E 135°01'713.2
2018-Feb-14 22:30N 34°13' E 134°60'2 4.9
2018-Feb-14 22:00N 34°11' E 134°60'2 4.9
2018-Feb-14 21:30N 34°12' E 135°03'510.8
2018-Feb-14 21:00N 34°13' E 135°09'0 0.3
2018-Feb-14 20:30N 34°13' E 135°09'0 0.0
2018-Feb-14 19:58N 34°13' E 135°09'0 0.0
2018-Feb-14 19:28N 34°13' E 135°09'0 0.0
2018-Feb-14 18:58N 34°13' E 135°09'0 0.0
2018-Feb-14 18:28N 34°13' E 135°09'0 0.0
2018-Feb-14 17:58N 34°13' E 135°09'0 0.0
2018-Feb-14 17:28N 34°13' E 135°09'0 0.0
2018-Feb-14 16:58N 34°13' E 135°09'0 0.0
2018-Feb-14 16:28N 34°13' E 135°09'0 0.0
2018-Feb-14 15:58N 34°13' E 135°09'0 0.0
2018-Feb-14 15:28N 34°13' E 135°09'0 0.0
2018-Feb-14 15:01N 34°13' E 135°09'0 0.0
2018-Feb-14 14:31N 34°13' E 135°09'0 0.0
2018-Feb-14 14:01N 34°13' E 135°09'0 0.0
2018-Feb-14 13:30N 34°13' E 135°09'0 0.0
2018-Feb-14 13:00N 34°13' E 135°09'0 0.0
2018-Feb-14 12:31N 34°13' E 135°09'0 0.0
2018-Feb-14 12:00N 34°13' E 135°09'0 0.0
2018-Feb-14 11:31N 34°13' E 135°09'0 0.0
2018-Feb-14 11:00N 34°13' E 135°09'0 0.0
2018-Feb-14 10:30N 34°13' E 135°09'0 0.0
2018-Feb-14 10:00N 34°13' E 135°09'0 0.0
2018-Feb-14 09:30N 34°13' E 135°09'0 0.0
2018-Feb-14 09:00N 34°13' E 135°09'0 0.0
2018-Feb-14 08:30N 34°13' E 135°09'0 0.0
2018-Feb-14 08:00N 34°13' E 135°09'0 0.0
2018-Feb-14 07:30N 34°13' E 135°09'0 0.0
2018-Feb-14 07:01N 34°13' E 135°09'5 9.5
2018-Feb-14 06:31N 34°14' E 135°03'510.7
2018-Feb-14 06:01N 34°18' E 134°59'713.9
2018-Feb-14 05:31N 34°24' E 135°02'714.3
2018-Feb-14 05:00N 34°30' E 135°06'4 8.9
2018-Feb-14 04:31N 34°34' E 135°09'5 9.6
2018-Feb-14 04:01N 34°36' E 135°03'815.6
2018-Feb-14 03:30N 34°35' E 134°54'814.8
2018-Feb-14 03:00N 34°34' E 134°44'714.8
2018-Feb-14 02:30N 34°41' E 134°42'  

Dump ship's entire track history